Time;durP1;ratioP1;P1;durP2;ratioP2;P2;SDS_P1;SDS_P2;PMS_P1;PMS_P2;Temp;Humidity;BMP_temperature;BMP_pressure;BME280_temperature;BME280_humidity;BME280_pressure;Samples;Min_cycle;Max_cycle;Signal;HPM_P1;HPM_P2
2022/05/28 00:01:24;;;;;;;;;;;11.40;99.90;;;;;;2720068;39;20395;31
2022/05/28 00:04:04;;;;;;;;;;;11.40;99.90;;;;;;2603302;54;19941;31
2022/05/28 00:06:39;;;;;;;;;;;11.30;99.90;;;;;;2602784;54;19943;31
2022/05/28 00:09:15;;;;;;;;;;;11.20;99.90;;;;;;2620620;46;20009;31
2022/05/28 00:11:52;;;;;;;;;;;11.20;99.90;;;;;;2602113;54;19935;31
2022/05/28 00:14:29;;;;;;;;;;;11.20;99.90;;;;;;2621629;46;19942;31
2022/05/28 00:19:49;;;;;;;;;;;11.20;99.90;;;;;;2602729;54;20701;31
2022/05/28 00:22:24;;;;;;;;;;;11.10;99.90;;;;;;2602786;54;19934;31
2022/05/28 00:24:59;;;;;;;;;;;11.10;99.90;;;;;;2621251;46;19934;31
2022/05/28 00:27:34;;;;;;;;;;;11.10;99.90;;;;;;2701252;39;21324;31
2022/05/28 00:30:14;;;;;;;;;;;11.00;99.90;;;;;;2602769;54;19934;31
2022/05/28 00:32:49;;;;;;;;;;;11.00;99.90;;;;;;2602651;54;20767;31
2022/05/28 00:35:23;;;;;;;;;;;11.00;99.90;;;;;;2621481;46;20714;31
2022/05/28 00:37:58;;;;;;;;;;;10.90;99.90;;;;;;2602670;54;19950;31
2022/05/28 00:40:35;;;;;;;;;;;10.80;99.90;;;;;;2621248;46;20783;31
2022/05/28 00:43:09;;;;;;;;;;;10.80;99.90;;;;;;2602519;54;19938;31
2022/05/28 00:45:47;;;;;;;;;;;10.70;99.90;;;;;;2602732;54;19942;31
2022/05/28 00:48:23;;;;;;;;;;;10.70;99.90;;;;;;2611970;46;20510;31
2022/05/28 00:50:57;;;;;;;;;;;10.60;99.90;;;;;;2616560;46;19994;31
2022/05/28 00:53:32;;;;;;;;;;;10.60;99.90;;;;;;2620354;46;19939;31
2022/05/28 00:56:10;;;;;;;;;;;10.50;99.90;;;;;;2601554;54;19950;31
2022/05/28 00:58:45;;;;;;;;;;;10.40;99.90;;;;;;2602743;54;20762;31
2022/05/28 01:01:21;;;;;;;;;;;10.40;99.90;;;;;;2602802;54;20735;31
2022/05/28 01:03:59;;;;;;;;;;;10.40;99.90;;;;;;2621196;46;19941;31
2022/05/28 01:06:34;;;;;;;;;;;10.30;99.90;;;;;;2602660;54;19935;31
2022/05/28 01:09:12;;;;;;;;;;;10.30;99.90;;;;;;2602373;54;19935;31
2022/05/28 01:11:47;;;;;;;;;;;10.30;99.90;;;;;;2621063;47;19941;31
2022/05/28 01:14:22;;;;;;;;;;;10.30;99.90;;;;;;2621053;47;19942;31
2022/05/28 01:17:00;;;;;;;;;;;10.30;99.90;;;;;;2601766;54;19942;31
2022/05/28 01:19:35;;;;;;;;;;;10.30;99.90;;;;;;2602439;54;19999;31
2022/05/28 01:22:10;;;;;;;;;;;10.40;99.90;;;;;;2620667;47;20803;31
2022/05/28 01:24:46;;;;;;;;;;;10.40;99.90;;;;;;2701045;39;21441;31
2022/05/28 01:27:24;;;;;;;;;;;10.40;99.90;;;;;;2621149;47;19958;31
2022/05/28 01:29:59;;;;;;;;;;;10.40;99.90;;;;;;2603333;47;20690;31
2022/05/28 01:32:36;;;;;;;;;;;10.40;99.90;;;;;;2621242;47;20771;31
2022/05/28 01:35:11;;;;;;;;;;;10.40;99.90;;;;;;2617323;47;19964;31
2022/05/28 01:37:46;;;;;;;;;;;10.40;99.90;;;;;;2602540;54;19993;31
2022/05/28 01:40:20;;;;;;;;;;;10.40;99.90;;;;;;2620645;47;20755;31
2022/05/28 01:42:58;;;;;;;;;;;10.40;99.90;;;;;;2602658;54;19986;31
2022/05/28 01:45:34;;;;;;;;;;;10.40;99.90;;;;;;2602478;54;20778;31
2022/05/28 01:48:10;;;;;;;;;;;10.40;99.90;;;;;;2620967;47;20819;31
2022/05/28 01:50:43;;;;;;;;;;;10.40;99.90;;;;;;2602379;54;19943;31
2022/05/28 01:54:07;;;;;;;;;;;10.40;99.90;;;;;;2601851;54;19958;31
2022/05/28 01:56:13;;;;;;;;;;;10.40;99.90;;;;;;2620947;47;19957;31
2022/05/28 01:58:52;;;;;;;;;;;10.50;99.90;;;;;;2719324;39;21342;31
2022/05/28 02:01:26;;;;;;;;;;;10.50;99.90;;;;;;2719143;39;21475;31
2022/05/28 02:04:04;;;;;;;;;;;10.40;99.90;;;;;;2620899;47;19935;31
2022/05/28 02:06:38;;;;;;;;;;;10.40;99.90;;;;;;2602331;54;20720;31
2022/05/28 02:09:12;;;;;;;;;;;10.40;99.90;;;;;;2603146;54;19942;31
2022/05/28 02:11:52;;;;;;;;;;;10.30;99.90;;;;;;2621765;46;20747;31
2022/05/28 02:14:32;;;;;;;;;;;10.30;99.90;;;;;;2602989;54;20693;31
2022/05/28 02:17:08;;;;;;;;;;;10.30;99.90;;;;;;2603312;54;19941;31
2022/05/28 02:19:46;;;;;;;;;;;10.30;99.90;;;;;;2603406;54;20748;31
2022/05/28 02:22:21;;;;;;;;;;;10.30;99.90;;;;;;2603120;54;20675;31
2022/05/28 02:24:57;;;;;;;;;;;10.20;99.90;;;;;;2622044;46;19941;31
2022/05/28 02:27:34;;;;;;;;;;;10.20;99.90;;;;;;2621516;46;19935;31
2022/05/28 02:30:12;;;;;;;;;;;10.20;99.90;;;;;;2603267;54;20020;31
2022/05/28 02:32:46;;;;;;;;;;;10.10;99.90;;;;;;2621934;46;19941;31
2022/05/28 02:35:22;;;;;;;;;;;8.30;99.90;;;;;;2621388;46;20039;31
2022/05/28 02:37:56;;;;;;;;;;;10.10;99.90;;;;;;2621560;46;19942;31
2022/05/28 02:40:30;;;;;;;;;;;10.00;99.90;;;;;;2621702;46;20729;31
2022/05/28 02:43:05;;;;;;;;;;;10.00;99.90;;;;;;2621158;46;19956;31
2022/05/28 02:45:43;;;;;;;;;;;10.00;99.90;;;;;;2621329;46;20743;31
2022/05/28 02:48:17;;;;;;;;;;;10.00;99.90;;;;;;2621872;46;20759;31
2022/05/28 02:50:55;;;;;;;;;;;10.00;99.90;;;;;;2621896;46;19941;31
2022/05/28 02:53:30;;;;;;;;;;;10.00;99.90;;;;;;2602973;54;19957;31
2022/05/28 02:56:05;;;;;;;;;;;10.00;99.90;;;;;;2603368;54;19942;31
2022/05/28 02:58:39;;;;;;;;;;;10.00;99.90;;;;;;2621472;46;19934;31
2022/05/28 03:01:16;;;;;;;;;;;10.00;99.90;;;;;;2603213;54;20464;31
2022/05/28 03:03:54;;;;;;;;;;;10.10;99.90;;;;;;2610428;46;20759;31
2022/05/28 03:06:29;;;;;;;;;;;10.00;99.90;;;;;;2621816;46;20756;31
2022/05/28 03:09:03;;;;;;;;;;;10.10;99.90;;;;;;2602318;54;20004;31
2022/05/28 03:11:38;;;;;;;;;;;10.10;99.90;;;;;;2621518;46;19943;31
2022/05/28 03:14:12;;;;;;;;;;;10.10;99.90;;;;;;2602714;54;19942;31
2022/05/28 03:16:46;;;;;;;;;;;10.10;99.90;;;;;;2602563;54;21201;31
2022/05/28 03:19:24;;;;;;;;;;;10.10;99.90;;;;;;2603110;54;20682;31
2022/05/28 03:22:01;;;;;;;;;;;10.10;99.90;;;;;;2602138;54;19942;31
2022/05/28 03:24:35;;;;;;;;;;;10.20;99.90;;;;;;2614676;46;19942;31
2022/05/28 03:27:10;;;;;;;;;;;10.10;99.90;;;;;;2603105;54;19942;31
2022/05/28 03:29:49;;;;;;;;;;;10.10;99.90;;;;;;2621816;46;20723;31
2022/05/28 03:32:23;;;;;;;;;;;10.20;99.90;;;;;;2621592;46;19942;31
2022/05/28 03:35:01;;;;;;;;;;;10.20;99.90;;;;;;2621555;46;19956;31
2022/05/28 03:37:35;;;;;;;;;;;10.30;99.90;;;;;;2603251;54;20681;31
2022/05/28 03:40:14;;;;;;;;;;;10.40;99.90;;;;;;2602153;54;19941;31
2022/05/28 03:42:49;;;;;;;;;;;10.60;99.90;;;;;;2621581;46;19942;31
2022/05/28 03:45:25;;;;;;;;;;;10.70;99.90;;;;;;2621438;46;19935;31
2022/05/28 03:48:00;;;;;;;;;;;10.80;99.90;;;;;;2603150;54;19964;31
2022/05/28 03:50:39;;;;;;;;;;;11.00;99.90;;;;;;2618968;46;20823;31
2022/05/28 03:53:16;;;;;;;;;;;11.10;99.90;;;;;;2603172;54;19960;31
2022/05/28 03:55:50;;;;;;;;;;;11.40;99.90;;;;;;2621223;46;19934;31
2022/05/28 03:58:25;;;;;;;;;;;11.80;99.90;;;;;;2602919;54;20670;31
2022/05/28 04:01:01;;;;;;;;;;;11.80;99.90;;;;;;2602793;54;20758;31
2022/05/28 04:03:38;;;;;;;;;;;12.20;99.90;;;;;;2602861;54;19945;31
2022/05/28 04:06:16;;;;;;;;;;;11.80;99.90;;;;;;2602856;54;19938;31
2022/05/28 04:08:51;;;;;;;;;;;11.60;99.90;;;;;;2602819;54;19977;31
2022/05/28 04:11:25;;;;;;;;;;;11.50;99.90;;;;;;2602880;54;20780;31
2022/05/28 04:13:59;;;;;;;;;;;11.40;99.90;;;;;;2602740;54;19962;31
2022/05/28 04:16:36;;;;;;;;;;;11.40;99.90;;;;;;2602932;54;19961;31
2022/05/28 04:19:14;;;;;;;;;;;11.30;99.90;;;;;;2601972;54;20545;31
2022/05/28 04:21:52;;;;;;;;;;;11.30;99.90;;;;;;2621284;46;20765;31
2022/05/28 04:24:32;;;;;;;;;;;11.30;99.90;;;;;;2621525;46;19935;31
2022/05/28 04:27:06;;;;;;;;;;;11.60;99.90;;;;;;2704084;39;21486;31
2022/05/28 04:29:40;;;;;;;;;;;11.80;99.90;;;;;;2621081;46;19980;31
2022/05/28 04:32:22;;;;;;;;;;;12.00;99.90;;;;;;2602829;54;20025;31
2022/05/28 04:34:57;;;;;;;;;;;12.20;99.90;;;;;;2621263;46;19942;31
2022/05/28 04:37:34;;;;;;;;;;;12.10;99.90;;;;;;2602747;54;20687;31
2022/05/28 04:40:09;;;;;;;;;;;12.00;99.90;;;;;;2602943;54;20752;31
2022/05/28 04:42:44;;;;;;;;;;;11.90;99.90;;;;;;2602709;54;21507;31
2022/05/28 04:45:21;;;;;;;;;;;11.80;99.90;;;;;;2701251;39;21353;31
2022/05/28 04:47:57;;;;;;;;;;;11.70;99.90;;;;;;2602793;54;19981;31
2022/05/28 04:50:32;;;;;;;;;;;11.70;99.90;;;;;;2602906;54;19942;31
2022/05/28 04:53:12;;;;;;;;;;;11.50;99.90;;;;;;2602654;54;19950;31
2022/05/28 04:55:50;;;;;;;;;;;11.40;99.90;;;;;;2701940;39;20441;31
2022/05/28 04:58:27;;;;;;;;;;;11.30;99.90;;;;;;2602462;54;20007;31
2022/05/28 05:01:04;;;;;;;;;;;11.30;99.90;;;;;;2621678;47;20677;31
2022/05/28 05:03:39;;;;;;;;;;;11.30;99.90;;;;;;2602073;54;19997;31
2022/05/28 05:06:13;;;;;;;;;;;11.30;99.90;;;;;;2772436;31;21619;31
2022/05/28 05:08:53;;;;;;;;;;;11.30;99.90;;;;;;2602629;54;20730;31
2022/05/28 05:11:28;;;;;;;;;;;11.30;99.90;;;;;;2621385;47;19939;31
2022/05/28 05:14:02;;;;;;;;;;;11.40;99.90;;;;;;2602603;54;19942;31
2022/05/28 05:16:39;;;;;;;;;;;11.30;99.90;;;;;;2621211;47;20688;31
2022/05/28 05:19:16;;;;;;;;;;;11.30;99.90;;;;;;2601802;54;19942;31
2022/05/28 05:21:53;;;;;;;;;;;11.40;99.90;;;;;;2621060;47;20745;31
2022/05/28 05:24:33;;;;;;;;;;;11.50;99.90;;;;;;2621220;47;19941;31
2022/05/28 05:27:09;;;;;;;;;;;11.80;99.90;;;;;;2621267;47;20755;31
2022/05/28 05:29:44;;;;;;;;;;;12.20;99.90;;;;;;2602933;54;19935;31
2022/05/28 05:32:20;;;;;;;;;;;12.70;99.90;;;;;;2621392;47;19957;31
2022/05/28 05:34:57;;;;;;;;;;;13.00;99.90;;;;;;2602620;54;19938;31
2022/05/28 05:37:37;;;;;;;;;;;13.40;99.90;;;;;;2602627;54;20002;31
2022/05/28 05:40:16;;;;;;;;;;;13.80;99.90;;;;;;2610433;47;19942;31
2022/05/28 05:42:50;;;;;;;;;;;14.10;99.90;;;;;;2622001;46;20405;31
2022/05/28 05:45:26;;;;;;;;;;;14.30;99.90;;;;;;2701520;39;20393;31
2022/05/28 05:48:00;;;;;;;;;;;14.40;99.90;;;;;;2603704;54;19940;31
2022/05/28 05:50:37;;;;;;;;;;;14.60;99.90;;;;;;2603537;54;19958;31
2022/05/28 05:53:12;;;;;;;;;;;14.80;99.90;;;;;;2603848;54;19998;31
2022/05/28 05:55:50;;;;;;;;;;;14.90;99.90;;;;;;2622041;46;19935;31
2022/05/28 05:58:26;;;;;;;;;;;15.20;99.90;;;;;;2621827;46;19935;31
2022/05/28 06:01:02;;;;;;;;;;;15.40;99.90;;;;;;2603054;54;20690;31
2022/05/28 06:03:38;;;;;;;;;;;15.50;99.90;;;;;;2603438;54;20681;31
2022/05/28 06:06:15;;;;;;;;;;;15.50;99.90;;;;;;2602796;54;20095;31
2022/05/28 06:08:55;;;;;;;;;;;15.50;99.90;;;;;;2611121;46;20565;31
2022/05/28 06:11:33;;;;;;;;;;;15.30;99.90;;;;;;2602876;54;20509;31
2022/05/28 06:14:08;;;;;;;;;;;15.00;99.90;;;;;;2603345;54;19942;31
2022/05/28 06:16:42;;;;;;;;;;;14.80;99.90;;;;;;2621908;46;20013;31
2022/05/28 06:19:18;;;;;;;;;;;14.70;99.90;;;;;;2720776;39;21390;31
2022/05/28 06:21:52;;;;;;;;;;;14.70;99.90;;;;;;2606059;46;20026;31
2022/05/28 06:24:26;;;;;;;;;;;14.50;99.90;;;;;;2622328;46;20663;31
2022/05/28 06:27:05;;;;;;;;;;;14.20;99.90;;;;;;2621519;46;20741;31
2022/05/28 06:29:39;;;;;;;;;;;14.00;99.90;;;;;;2622098;46;20815;31
2022/05/28 06:32:15;;;;;;;;;;;13.80;99.90;;;;;;2602637;54;20045;31
2022/05/28 06:34:49;;;;;;;;;;;13.90;99.90;;;;;;2603387;54;20595;31
2022/05/28 06:37:23;;;;;;;;;;;14.20;99.90;;;;;;2603100;54;19935;31
2022/05/28 06:39:57;;;;;;;;;;;14.20;99.90;;;;;;2622174;46;20737;31
2022/05/28 06:42:36;;;;;;;;;;;14.30;99.90;;;;;;2621992;46;19935;31
2022/05/28 06:45:14;;;;;;;;;;;14.30;99.90;;;;;;2622119;46;20665;31
2022/05/28 06:47:48;;;;;;;;;;;14.60;99.90;;;;;;2622001;46;19939;31
2022/05/28 06:53:10;;;;;;;;;;;15.10;99.90;;;;;;2622015;46;19941;31
2022/05/28 06:55:45;;;;;;;;;;;15.40;99.90;;;;;;2622091;46;19973;31
2022/05/28 06:58:22;;;;;;;;;;;15.60;99.90;;;;;;2603470;54;20740;31
2022/05/28 07:00:56;;;;;;;;;;;15.70;99.90;;;;;;2603488;54;19946;31
2022/05/28 07:03:30;;;;;;;;;;;15.50;99.90;;;;;;2621918;46;19941;31
2022/05/28 07:06:05;;;;;;;;;;;15.40;99.90;;;;;;2603511;54;19935;31
2022/05/28 07:08:43;;;;;;;;;;;15.20;99.90;;;;;;2620119;46;19961;31
2022/05/28 07:11:24;;;;;;;;;;;15.00;99.90;;;;;;2608927;46;19980;31
2022/05/28 07:14:01;;;;;;;;;;;15.20;99.90;;;;;;2602342;54;19942;31
2022/05/28 07:16:40;;;;;;;;;;;15.20;99.90;;;;;;2621938;46;19934;31
2022/05/28 07:19:18;;;;;;;;;;;15.20;99.90;;;;;;2603543;54;19935;31
2022/05/28 07:21:52;;;;;;;;;;;15.00;99.90;;;;;;2618618;46;20765;31
2022/05/28 07:24:27;;;;;;;;;;;14.70;99.90;;;;;;2621947;46;19934;31
2022/05/28 07:27:05;;;;;;;;;;;14.50;99.90;;;;;;2603515;54;20769;31
2022/05/28 07:29:43;;;;;;;;;;;14.40;99.90;;;;;;2701859;39;21521;31
2022/05/28 07:32:20;;;;;;;;;;;14.40;99.90;;;;;;2701184;39;21232;31
2022/05/28 07:34:54;;;;;;;;;;;14.40;99.90;;;;;;2602711;54;19954;31
2022/05/28 07:37:29;;;;;;;;;;;14.50;99.90;;;;;;2603013;54;19934;31
2022/05/28 07:40:07;;;;;;;;;;;14.50;99.90;;;;;;2603102;54;20765;31
2022/05/28 07:42:44;;;;;;;;;;;14.70;99.90;;;;;;2602417;54;19942;31
2022/05/28 07:45:27;;;;;;;;;;;14.70;99.90;;;;;;2603149;54;19935;31
2022/05/28 07:48:05;;;;;;;;;;;14.90;99.90;;;;;;2603126;54;20795;31
2022/05/28 07:50:40;;;;;;;;;;;14.90;99.90;;;;;;2603583;54;20707;31
2022/05/28 07:53:17;;;;;;;;;;;15.00;99.90;;;;;;2602585;54;20665;31
2022/05/28 07:55:54;;;;;;;;;;;15.00;99.90;;;;;;2603299;54;19946;31
2022/05/28 07:58:28;;;;;;;;;;;15.00;99.90;;;;;;2621785;46;20722;31
2022/05/28 08:01:06;;;;;;;;;;;15.00;99.90;;;;;;2621515;46;19934;31
2022/05/28 08:03:44;;;;;;;;;;;15.00;99.90;;;;;;2603197;54;20615;31
2022/05/28 08:06:18;;;;;;;;;;;15.30;99.90;;;;;;2621729;46;20747;31
2022/05/28 08:08:56;;;;;;;;;;;15.80;99.90;;;;;;2602623;54;19938;31
2022/05/28 08:11:33;;;;;;;;;;;16.30;99.90;;;;;;2621920;46;19938;31
2022/05/28 08:14:08;;;;;;;;;;;16.80;99.90;;;;;;2603103;54;19942;31
2022/05/28 08:16:45;;;;;;;;;;;17.00;99.90;;;;;;2603368;54;19943;31
2022/05/28 08:19:22;;;;;;;;;;;17.10;99.90;;;;;;2603246;54;20046;31
2022/05/28 08:24:42;;;;;;;;;;;17.00;99.90;;;;;;2603227;54;19941;31
2022/05/28 08:27:19;;;;;;;;;;;16.90;99.90;;;;;;2621610;46;21285;31
2022/05/28 08:29:53;;;;;;;;;;;16.90;99.90;;;;;;2602929;54;19962;31
2022/05/28 08:32:27;;;;;;;;;;;16.80;99.90;;;;;;2603193;54;20747;31
2022/05/28 08:35:05;;;;;;;;;;;16.80;99.90;;;;;;2603039;54;20777;31
2022/05/28 08:37:39;;;;;;;;;;;16.60;99.90;;;;;;2621706;46;20712;31
2022/05/28 08:40:14;;;;;;;;;;;16.80;99.90;;;;;;2602809;54;20643;31
2022/05/28 08:42:46;;;;;;;;;;;17.20;99.90;;;;;;2603155;54;20823;31
2022/05/28 08:45:21;;;;;;;;;;;17.20;99.90;;;;;;2791773;31;21243;31
2022/05/28 08:47:55;;;;;;;;;;;17.40;99.90;;;;;;2621572;46;19941;31
2022/05/28 08:50:32;;;;;;;;;;;17.30;99.90;;;;;;2603267;54;19934;31
2022/05/28 08:53:07;;;;;;;;;;;17.10;99.90;;;;;;2602991;54;19936;31
2022/05/28 08:55:43;;;;;;;;;;;17.10;99.90;;;;;;2603038;54;20762;31
2022/05/28 08:58:17;;;;;;;;;;;17.00;99.90;;;;;;2602838;54;20748;31
2022/05/28 09:00:51;;;;;;;;;;;17.10;99.90;;;;;;2621639;47;19939;31
2022/05/28 09:03:26;;;;;;;;;;;17.30;99.90;;;;;;2602864;54;20731;31
2022/05/28 09:06:04;;;;;;;;;;;17.50;99.90;;;;;;2602774;54;19943;31
2022/05/28 09:08:39;;;;;;;;;;;17.70;99.90;;;;;;2603150;54;20005;31
2022/05/28 09:11:14;;;;;;;;;;;17.70;99.90;;;;;;2602839;54;20680;31
2022/05/28 09:13:49;;;;;;;;;;;17.50;99.90;;;;;;2622334;47;20718;31
2022/05/28 09:16:25;;;;;;;;;;;17.30;99.90;;;;;;2603936;54;20659;31
2022/05/28 09:19:01;;;;;;;;;;;17.30;99.90;;;;;;2603673;54;20785;31
2022/05/28 09:21:38;;;;;;;;;;;17.20;99.90;;;;;;2603889;54;20612;31
2022/05/28 09:24:12;;;;;;;;;;;17.20;99.90;;;;;;2702320;39;21176;31
2022/05/28 09:27:01;;;;;;;;;;;17.30;99.90;;;;;;2603982;54;20691;31
2022/05/28 09:29:52;;;;;;;;;;;17.40;99.90;;;;;;2604016;54;19957;31
2022/05/28 09:32:29;;;;;;;;;;;17.70;99.90;;;;;;2603379;54;20554;31
2022/05/28 09:35:05;;;;;;;;;;;17.30;99.90;;;;;;2603652;54;19930;31
2022/05/28 09:37:45;;;;;;;;;;;17.00;99.90;;;;;;2603741;54;19943;31
2022/05/28 09:40:21;;;;;;;;;;;16.80;99.90;;;;;;2603727;54;19949;31
2022/05/28 09:43:02;;;;;;;;;;;16.60;99.90;;;;;;2603908;54;20010;31
2022/05/28 09:45:39;;;;;;;;;;;16.60;99.90;;;;;;2622234;46;20851;31
2022/05/28 09:48:19;;;;;;;;;;;16.60;99.90;;;;;;2619713;46;20830;31
2022/05/28 09:50:51;;;;;;;;;;;16.50;99.90;;;;;;2622431;46;20717;31
2022/05/28 09:56:19;;;;;;;;;;;15.60;99.90;;;;;;2603893;54;19994;31
2022/05/28 09:58:53;;;;;;;;;;;15.10;99.90;;;;;;2622138;46;19934;31
2022/05/28 10:01:28;;;;;;;;;;;14.80;99.90;;;;;;2603553;54;20751;31
2022/05/28 10:06:53;;;;;;;;;;;14.20;99.90;;;;;;2603457;54;19935;31
2022/05/28 10:09:31;;;;;;;;;;;14.30;99.90;;;;;;2720434;39;20432;31
2022/05/28 10:12:10;;;;;;;;;;;14.60;99.90;;;;;;2603924;54;20760;31
2022/05/28 10:14:44;;;;;;;;;;;15.00;99.90;;;;;;2603276;54;20654;31
2022/05/28 10:17:24;;;;;;;;;;;15.40;99.90;;;;;;2622251;46;20721;31
2022/05/28 10:19:59;;;;;;;;;;;15.70;99.90;;;;;;2603410;54;20751;31
2022/05/28 10:22:33;;;;;;;;;;;16.00;99.90;;;;;;2603697;54;20769;31
2022/05/28 10:25:11;;;;;;;;;;;16.20;99.90;;;;;;2603322;54;19934;31
2022/05/28 10:27:49;;;;;;;;;;;16.30;99.90;;;;;;2622227;46;19942;31
2022/05/28 10:30:25;;;;;;;;;;;16.50;99.90;;;;;;2603629;54;20631;31
2022/05/28 10:32:59;;;;;;;;;;;17.00;99.90;;;;;;2621827;46;20013;31
2022/05/28 10:35:33;;;;;;;;;;;17.00;99.90;;;;;;2603608;54;19938;31
2022/05/28 10:38:11;;;;;;;;;;;17.30;99.90;;;;;;2603602;54;19939;31
2022/05/28 10:40:53;;;;;;;;;;;17.30;99.90;;;;;;2720664;39;21295;31
2022/05/28 10:43:28;;;;;;;;;;;17.30;99.90;;;;;;2603564;54;19942;31
2022/05/28 10:46:06;;;;;;;;;;;17.30;99.90;;;;;;2603564;54;19942;31
2022/05/28 10:48:43;;;;;;;;;;;17.20;99.90;;;;;;2603397;54;20021;31
2022/05/28 10:51:19;;;;;;;;;;;17.10;99.90;;;;;;2603727;54;20783;31
2022/05/28 10:54:01;;;;;;;;;;;17.00;99.90;;;;;;2621797;46;19935;31
2022/05/28 10:56:41;;;;;;;;;;;17.20;99.90;;;;;;2603525;54;20741;31
2022/05/28 10:59:19;;;;;;;;;;;17.30;99.90;;;;;;2603249;54;20717;31
2022/05/28 11:01:55;;;;;;;;;;;17.20;99.90;;;;;;2622305;46;19944;31
2022/05/28 11:04:44;;;;;;;;;;;17.20;99.90;;;;;;2622171;46;19941;31
2022/05/28 11:07:27;;;;;;;;;;;17.50;99.90;;;;;;2603452;54;20835;31
2022/05/28 11:10:05;;;;;;;;;;;17.40;99.40;;;;;;2603415;54;19986;31
2022/05/28 11:12:48;;;;;;;;;;;17.20;99.90;;;;;;2603270;54;19941;31
2022/05/28 11:15:28;;;;;;;;;;;17.10;99.90;;;;;;2603218;54;19961;31
2022/05/28 11:18:07;;;;;;;;;;;17.10;99.90;;;;;;2622041;46;20738;31
2022/05/28 11:20:43;;;;;;;;;;;16.90;99.90;;;;;;2603481;54;19989;31
2022/05/28 11:23:27;;;;;;;;;;;16.80;99.90;;;;;;2621696;46;20017;31
2022/05/28 11:26:02;;;;;;;;;;;16.80;99.90;;;;;;2621527;46;19949;31
2022/05/28 11:29:07;;;;;;;;;;;16.80;99.90;;;;;;2621946;46;20739;31
2022/05/28 11:31:45;;;;;;;;;;;16.70;99.90;;;;;;2622049;46;20772;31
2022/05/28 11:34:21;;;;;;;;;;;16.60;99.90;;;;;;2603565;54;20743;31
2022/05/28 11:36:56;;;;;;;;;;;16.50;99.90;;;;;;2603257;54;20631;31
2022/05/28 11:39:33;;;;;;;;;;;16.40;99.90;;;;;;2603255;54;20793;31
2022/05/28 11:42:09;;;;;;;;;;;16.40;99.90;;;;;;2603384;54;20775;31
2022/05/28 11:44:44;;;;;;;;;;;16.40;99.90;;;;;;2603240;54;20733;31
2022/05/28 11:47:22;;;;;;;;;;;16.50;99.90;;;;;;2603374;54;19941;31
2022/05/28 11:52:43;;;;;;;;;;;15.90;99.90;;;;;;2621560;46;19934;31
2022/05/28 11:55:18;;;;;;;;;;;15.50;99.90;;;;;;2603443;54;19977;31
2022/05/28 11:58:00;;;;;;;;;;;15.10;99.90;;;;;;2646773;53;19937;31
2022/05/28 12:00:33;;;;;;;;;;;14.80;99.90;;;;;;2607237;54;19946;31
2022/05/28 12:03:07;;;;;;;;;;;14.80;99.90;;;;;;2626162;46;20702;31
2022/05/28 12:05:42;;;;;;;;;;;14.70;99.90;;;;;;2706253;38;20463;31
2022/05/28 12:08:20;;;;;;;;;;;14.70;99.90;;;;;;2607259;54;19985;31
2022/05/28 12:10:53;;;;;;;;;;;14.80;99.90;;;;;;2706459;38;22262;31
2022/05/28 12:13:43;;;;;;;;;;;14.80;99.90;;;;;;2625988;46;19985;31
2022/05/28 12:16:31;;;;;;;;;;;15.00;99.90;;;;;;2607281;54;20663;31
2022/05/28 12:19:07;;;;;;;;;;;15.30;99.90;;;;;;2625824;46;20797;31
2022/05/28 12:21:43;;;;;;;;;;;15.60;99.90;;;;;;2607205;54;19942;31
2022/05/28 12:24:27;;;;;;;;;;;15.90;99.90;;;;;;2626134;46;19960;31
2022/05/28 12:27:18;;;;;;;;;;;16.10;99.90;;;;;;2607232;54;20024;31
2022/05/28 12:29:58;;;;;;;;;;;16.30;99.90;;;;;;2607540;54;19934;31
2022/05/28 12:32:48;;;;;;;;;;;16.60;99.90;;;;;;2626116;46;20799;31
2022/05/28 12:35:27;;;;;;;;;;;16.80;99.90;;;;;;2607299;54;20753;31
2022/05/28 12:38:03;;;;;;;;;;;16.90;99.90;;;;;;2607369;54;20748;31
2022/05/28 12:40:40;;;;;;;;;;;16.80;99.90;;;;;;2623589;46;20753;31
2022/05/28 12:43:16;;;;;;;;;;;16.70;99.90;;;;;;2705403;38;21077;31
2022/05/28 12:45:53;;;;;;;;;;;16.60;99.90;;;;;;2606597;54;19948;31
2022/05/28 12:48:31;;;;;;;;;;;16.50;99.90;;;;;;2606415;54;19942;31
2022/05/28 12:51:10;;;;;;;;;;;16.50;99.90;;;;;;2621345;46;19949;31
2022/05/28 12:53:51;;;;;;;;;;;16.40;99.90;;;;;;2705196;38;21482;31
2022/05/28 12:56:26;;;;;;;;;;;16.40;99.90;;;;;;2607061;54;19934;31
2022/05/28 12:59:12;;;;;;;;;;;16.50;99.90;;;;;;2607438;54;19935;31
2022/05/28 13:01:49;;;;;;;;;;;16.60;99.90;;;;;;2625384;46;22229;31
2022/05/28 13:04:26;;;;;;;;;;;16.70;99.90;;;;;;2607005;54;21521;31
2022/05/28 13:07:01;;;;;;;;;;;16.80;99.90;;;;;;2607481;54;20722;31
2022/05/28 13:09:38;;;;;;;;;;;16.80;99.90;;;;;;2603556;54;20802;31
2022/05/28 13:12:17;;;;;;;;;;;16.90;99.90;;;;;;2702032;39;21286;31
2022/05/28 13:15:02;;;;;;;;;;;16.90;99.90;;;;;;2622061;46;20720;31
2022/05/28 13:17:53;;;;;;;;;;;17.00;99.90;;;;;;2622238;46;19960;31
2022/05/28 13:20:34;;;;;;;;;;;17.10;99.90;;;;;;2603672;54;19935;31
2022/05/28 13:23:10;;;;;;;;;;;17.10;99.90;;;;;;2603635;54;19941;31
2022/05/28 13:25:49;;;;;;;;;;;17.20;99.90;;;;;;2602971;54;20740;31
2022/05/28 13:28:27;;;;;;;;;;;17.10;99.90;;;;;;2622068;46;20041;31
2022/05/28 13:31:03;;;;;;;;;;;17.20;99.90;;;;;;2621948;46;19941;31
2022/05/28 13:33:38;;;;;;;;;;;17.10;99.90;;;;;;2603302;54;19997;31
2022/05/28 13:36:16;;;;;;;;;;;17.10;99.90;;;;;;2603392;54;20017;31
2022/05/28 13:38:52;;;;;;;;;;;17.10;99.90;;;;;;2602814;54;19949;31
2022/05/28 13:41:27;;;;;;;;;;;17.10;99.90;;;;;;2602636;54;19981;31
2022/05/28 13:44:05;;;;;;;;;;;17.10;99.90;;;;;;2602606;54;19935;31
2022/05/28 13:46:43;;;;;;;;;;;17.10;99.90;;;;;;2602678;54;19938;31
2022/05/28 13:49:19;;;;;;;;;;;17.20;99.90;;;;;;2602854;54;19950;31
2022/05/28 13:52:08;;;;;;;;;;;17.20;99.90;;;;;;2603419;54;20000;31
2022/05/28 13:54:46;;;;;;;;;;;17.20;99.90;;;;;;2603002;54;20132;31
2022/05/28 13:57:25;;;;;;;;;;;17.10;99.90;;;;;;2602736;54;19942;31
2022/05/28 14:00:00;;;;;;;;;;;16.90;99.90;;;;;;2720383;39;22272;31
2022/05/28 14:02:40;;;;;;;;;;;16.60;99.90;;;;;;2602889;54;19954;31
2022/05/28 14:05:14;;;;;;;;;;;16.10;99.90;;;;;;2603268;54;19942;31
2022/05/28 14:07:51;;;;;;;;;;;15.70;99.90;;;;;;2603434;54;19957;31
2022/05/28 14:10:26;;;;;;;;;;;15.30;99.90;;;;;;2603556;54;19935;31
2022/05/28 14:13:03;;;;;;;;;;;15.00;99.90;;;;;;2602551;54;19935;31
2022/05/28 14:15:39;;;;;;;;;;;14.90;99.90;;;;;;2621908;46;19935;31
2022/05/28 14:18:20;;;;;;;;;;;14.60;99.90;;;;;;2603234;54;20760;31
2022/05/28 14:20:53;;;;;;;;;;;14.50;99.90;;;;;;2603099;54;22216;31
2022/05/28 14:23:27;;;;;;;;;;;14.30;99.90;;;;;;2603430;54;19935;31
2022/05/28 14:26:03;;;;;;;;;;;14.30;99.90;;;;;;2603159;54;19935;31
2022/05/28 14:28:40;;;;;;;;;;;14.40;99.90;;;;;;2621711;46;22251;31
2022/05/28 14:31:16;;;;;;;;;;;14.50;99.90;;;;;;2602967;54;20757;31
2022/05/28 14:33:52;;;;;;;;;;;14.50;99.90;;;;;;2603238;54;20006;31
2022/05/28 14:36:33;;;;;;;;;;;14.60;99.90;;;;;;2603161;54;20651;31
2022/05/28 14:39:14;;;;;;;;;;;14.70;99.90;;;;;;2621267;46;19931;31
2022/05/28 14:41:51;;;;;;;;;;;14.80;99.90;;;;;;2603403;54;19941;31
2022/05/28 14:44:29;;;;;;;;;;;14.90;99.90;;;;;;2622029;46;20481;31
2022/05/28 14:47:03;;;;;;;;;;;15.10;99.90;;;;;;2603353;54;19935;31
2022/05/28 14:49:39;;;;;;;;;;;15.10;99.90;;;;;;2621842;46;20027;31
2022/05/28 14:52:16;;;;;;;;;;;15.20;99.90;;;;;;2603354;54;20011;31
2022/05/28 14:54:52;;;;;;;;;;;15.20;99.90;;;;;;2603189;54;20013;31
2022/05/28 14:57:27;;;;;;;;;;;15.30;99.90;;;;;;2621511;46;20737;31
2022/05/28 15:00:05;;;;;;;;;;;15.40;99.90;;;;;;2621172;46;19964;31
2022/05/28 15:02:40;;;;;;;;;;;15.50;99.90;;;;;;2603333;54;19942;31
2022/05/28 15:05:16;;;;;;;;;;;15.60;99.90;;;;;;2618836;46;20734;31
2022/05/28 15:07:57;;;;;;;;;;;15.70;99.90;;;;;;2617685;46;20800;31
2022/05/28 15:10:32;;;;;;;;;;;15.70;99.90;;;;;;2612462;46;20718;31
2022/05/28 15:13:19;;;;;;;;;;;15.70;99.90;;;;;;2602390;54;19935;31
2022/05/28 15:15:57;;;;;;;;;;;15.80;99.90;;;;;;2603293;54;19935;31
2022/05/28 15:18:34;;;;;;;;;;;15.80;99.90;;;;;;2621739;46;19941;31
2022/05/28 15:21:09;;;;;;;;;;;15.90;99.90;;;;;;2602460;54;19946;31
2022/05/28 15:23:44;;;;;;;;;;;15.90;99.90;;;;;;2620921;46;19949;31
2022/05/28 15:26:21;;;;;;;;;;;15.90;99.90;;;;;;2602375;54;20827;31
2022/05/28 15:28:54;;;;;;;;;;;15.90;99.90;;;;;;2603310;54;22239;31
2022/05/28 15:31:32;;;;;;;;;;;15.90;99.90;;;;;;2603142;54;20753;31
2022/05/28 15:34:09;;;;;;;;;;;15.90;99.90;;;;;;2602960;54;19954;31
2022/05/28 15:39:36;;;;;;;;;;;15.90;99.90;;;;;;2701396;39;20426;31
2022/05/28 15:45:15;;;;;;;;;;;16.00;99.90;;;;;;2602820;54;20691;31
2022/05/28 15:47:53;;;;;;;;;;;15.90;99.90;;;;;;2621683;46;19935;31
2022/05/28 15:50:27;;;;;;;;;;;15.90;99.90;;;;;;2621670;46;19934;31